createdAt,value
2019-02-14T00:01:16.199Z,85.20
2019-02-14T00:03:46.642Z,85.52
2019-02-14T00:06:17.441Z,85.50
2019-02-14T00:08:47.888Z,85.98
2019-02-14T00:11:18.331Z,86.30
2019-02-14T00:13:48.903Z,86.02
2019-02-14T00:16:19.376Z,85.79
2019-02-14T00:18:50.778Z,85.74
2019-02-14T00:21:22.041Z,85.82
2019-02-14T00:23:52.486Z,86.23
2019-02-14T00:26:22.935Z,86.19
2019-02-14T00:28:54.714Z,86.09
2019-02-14T00:31:25.527Z,85.99
2019-02-14T00:33:56.363Z,86.34
2019-02-14T00:36:26.850Z,86.74
2019-02-14T00:38:57.377Z,86.71
2019-02-14T00:41:28.223Z,86.73
2019-02-14T00:43:58.724Z,86.54
2019-02-14T00:46:29.170Z,86.51
2019-02-14T00:48:59.965Z,86.75
2019-02-14T00:51:30.775Z,86.98
2019-02-14T00:54:01.222Z,86.95
2019-02-14T00:56:32.446Z,87.13
2019-02-14T00:59:03.271Z,86.96
2019-02-14T01:01:33.719Z,86.93
2019-02-14T01:04:04.157Z,87.45
2019-02-14T01:06:34.655Z,87.63
2019-02-14T01:09:06.595Z,87.83
2019-02-14T01:11:37.035Z,88.07
2019-02-14T01:14:07.538Z,88.01
2019-02-14T01:16:38.010Z,88.02
2019-02-14T01:19:08.462Z,87.88
2019-02-14T01:21:38.969Z,88.51
2019-02-14T01:24:09.738Z,88.14
2019-02-14T01:26:40.562Z,88.05
2019-02-14T01:29:11.070Z,88.12
2019-02-14T01:31:41.513Z,88.01
2019-02-14T01:34:11.967Z,88.00
2019-02-14T01:36:42.484Z,87.92
2019-02-14T01:39:13.239Z,88.02
2019-02-14T01:41:44.005Z,87.74
2019-02-14T01:44:14.507Z,88.30
2019-02-14T01:46:45.650Z,88.41
2019-02-14T01:49:16.123Z,88.00
2019-02-14T01:51:46.615Z,88.14
2019-02-14T01:54:17.064Z,88.14
2019-02-14T01:56:48.190Z,88.04
2019-02-14T01:59:18.691Z,87.89
2019-02-14T02:01:49.489Z,87.73
2019-02-14T02:04:20.294Z,87.68
2019-02-14T02:06:51.134Z,87.54
2019-02-14T02:09:21.574Z,87.47
2019-02-14T02:11:52.015Z,87.41
2019-02-14T02:14:22.521Z,87.62
2019-02-14T02:16:53.560Z,87.58
2019-02-14T02:19:24.024Z,87.50
2019-02-14T02:21:54.496Z,87.37
2019-02-14T02:24:24.957Z,87.41
2019-02-14T02:26:55.565Z,87.56
2019-02-14T02:29:26.071Z,87.50
2019-02-14T02:31:56.899Z,87.91
2019-02-14T02:34:27.351Z,87.76
2019-02-14T02:36:57.840Z,87.84
2019-02-14T02:39:28.307Z,87.70
2019-02-14T02:41:59.133Z,87.49
2019-02-14T02:44:29.643Z,87.58
2019-02-14T02:47:00.089Z,87.44
2019-02-14T02:49:30.527Z,87.40
2019-02-14T02:52:01.753Z,87.68
2019-02-14T02:54:32.186Z,87.74
2019-02-14T02:57:03.150Z,87.75
2019-02-14T02:59:33.669Z,88.00
2019-02-14T03:02:04.115Z,87.80
2019-02-14T03:04:34.562Z,87.70
2019-02-14T03:07:05.494Z,87.60
2019-02-14T03:09:36.225Z,88.07
2019-02-14T03:12:06.671Z,87.97
2019-02-14T03:14:37.471Z,87.56
2019-02-14T03:17:08.794Z,87.72
2019-02-14T03:19:39.556Z,87.90
2019-02-14T03:22:10.037Z,87.64
2019-02-14T03:24:40.487Z,87.79
2019-02-14T03:27:10.941Z,88.08
2019-02-14T03:29:41.450Z,87.90
2019-02-14T03:32:12.310Z,87.81
2019-02-14T03:34:43.134Z,87.69
2019-02-14T03:37:13.625Z,87.88
2019-02-14T03:39:44.402Z,87.78
2019-02-14T03:42:14.847Z,87.34
2019-02-14T03:44:45.324Z,87.46
2019-02-14T03:47:15.767Z,87.51
2019-02-14T03:49:46.635Z,87.50
2019-02-14T03:52:17.080Z,86.88
2019-02-14T03:54:47.518Z,86.83
2019-02-14T03:57:18.874Z,87.20
2019-02-14T03:59:49.314Z,87.25
2019-02-14T04:02:20.574Z,87.07
2019-02-14T04:04:51.024Z,87.01
2019-02-14T04:07:21.474Z,86.70
2019-02-14T04:09:52.914Z,87.03
2019-02-14T04:12:23.711Z,86.92
2019-02-14T04:14:54.474Z,86.94
2019-02-14T04:17:24.921Z,86.78
2019-02-14T04:19:55.395Z,86.88
2019-02-14T04:22:25.870Z,86.99
2019-02-14T04:24:56.947Z,86.89
2019-02-14T04:27:27.673Z,86.04
2019-02-14T04:29:58.129Z,86.28
2019-02-14T04:32:28.953Z,86.03
2019-02-14T04:34:59.443Z,85.93
2019-02-14T04:37:29.889Z,86.12
2019-02-14T04:40:00.386Z,86.01
2019-02-14T04:42:31.426Z,86.30
2019-02-14T04:45:02.049Z,86.11
2019-02-14T04:47:32.683Z,85.84
2019-02-14T04:50:03.494Z,85.83
2019-02-14T04:52:33.978Z,86.21
2019-02-14T04:55:05.069Z,86.56
2019-02-14T04:57:35.958Z,86.43
2019-02-14T05:00:07.290Z,86.52
2019-02-14T05:02:38.208Z,86.70
2019-02-14T05:05:08.878Z,86.63
2019-02-14T05:07:39.328Z,86.53
2019-02-14T05:10:09.884Z,86.79
2019-02-14T05:12:40.357Z,86.64
2019-02-14T05:15:10.941Z,86.71
2019-02-14T05:17:41.944Z,86.99
2019-02-14T05:20:12.400Z,86.98
2019-02-14T05:22:42.851Z,86.59
2019-02-14T05:25:13.324Z,86.86
2019-02-14T05:27:43.787Z,86.85
2019-02-14T05:30:14.470Z,86.65
2019-02-14T05:32:45.216Z,86.50
2019-02-14T05:35:16.043Z,86.57
2019-02-14T05:37:47.100Z,86.25
2019-02-14T05:40:17.838Z,86.13
2019-02-14T05:42:48.614Z,86.14
2019-02-14T05:45:19.435Z,86.17
2019-02-14T05:47:50.007Z,86.31
2019-02-14T05:50:20.503Z,86.34
2019-02-14T05:52:50.956Z,86.36
2019-02-14T05:55:21.810Z,86.09
2019-02-14T05:57:52.274Z,85.68
2019-02-14T06:00:23.036Z,85.76
2019-02-14T06:02:53.510Z,86.12
2019-02-14T06:05:23.965Z,86.01
2019-02-14T06:07:55.086Z,86.04
2019-02-14T06:10:25.889Z,85.88
2019-02-14T06:12:56.365Z,85.56
2019-02-14T06:15:26.839Z,85.58
2019-02-14T06:17:57.302Z,85.53
2019-02-14T06:20:28.797Z,85.65
2019-02-14T06:22:59.246Z,85.80
2019-02-14T06:25:29.706Z,85.58
2019-02-14T06:28:00.170Z,85.58
2019-02-14T06:30:30.615Z,85.47
2019-02-14T06:33:01.402Z,85.40
2019-02-14T06:35:31.851Z,85.21
2019-02-14T06:38:03.031Z,85.29
2019-02-14T06:40:33.521Z,84.84
2019-02-14T06:43:03.962Z,84.48
2019-02-14T06:45:34.782Z,84.40
2019-02-14T06:48:05.227Z,84.70
2019-02-14T06:50:35.673Z,84.31
2019-02-14T06:53:06.157Z,84.00
2019-02-14T06:55:36.607Z,83.75
2019-02-14T06:58:08.064Z,84.09
2019-02-14T07:00:38.844Z,83.81
2019-02-14T07:03:09.675Z,83.87
2019-02-14T07:05:40.415Z,83.97
2019-02-14T07:08:11.297Z,84.29
2019-02-14T07:10:41.791Z,84.39
2019-02-14T07:13:12.246Z,83.80
2019-02-14T07:15:42.693Z,84.18
2019-02-14T07:18:13.489Z,83.83
2019-02-14T07:20:43.943Z,84.06
2019-02-14T07:23:15.087Z,84.41
2019-02-14T07:25:45.530Z,84.46
2019-02-14T07:28:16.158Z,84.14
2019-02-14T07:30:46.646Z,83.85
2019-02-14T07:33:17.089Z,83.30
2019-02-14T07:35:48.050Z,83.68
2019-02-14T07:38:18.497Z,83.79
2019-02-14T07:40:48.943Z,83.82
2019-02-14T07:43:19.414Z,83.71
2019-02-14T07:45:49.869Z,83.70
2019-02-14T07:48:21.732Z,84.06
2019-02-14T07:50:52.181Z,83.68
2019-02-14T07:53:22.631Z,83.55
2019-02-14T07:55:53.106Z,83.07
2019-02-14T07:58:24.697Z,82.97
2019-02-14T08:00:55.655Z,83.83
2019-02-14T08:03:26.371Z,83.79
2019-02-14T08:05:56.834Z,83.28
2019-02-14T08:08:27.311Z,82.85
2019-02-14T08:10:57.753Z,82.46
2019-02-14T08:13:28.257Z,82.29
2019-02-14T08:15:58.698Z,81.61
2019-02-14T08:18:29.142Z,80.54
2019-02-14T08:20:59.634Z,80.56
2019-02-14T08:23:30.113Z,80.09
2019-02-14T08:26:00.611Z,80.44
2019-02-14T08:28:31.059Z,80.52
2019-02-14T08:31:01.530Z,80.08
2019-02-14T08:33:32.045Z,80.02
2019-02-14T08:36:02.876Z,80.10
2019-02-14T08:38:33.383Z,80.00
2019-02-14T08:41:04.215Z,79.35
2019-02-14T08:43:34.654Z,79.11
2019-02-14T08:46:05.137Z,78.01
2019-02-14T08:48:35.583Z,77.95
2019-02-14T08:51:06.087Z,78.26
2019-02-14T08:53:36.618Z,78.61
2019-02-14T08:56:07.065Z,77.15
2019-02-14T08:58:37.850Z,76.06
2019-02-14T09:01:08.681Z,75.20
2019-02-14T09:03:39.522Z,75.67
2019-02-14T09:06:10.011Z,75.80
2019-02-14T09:08:40.455Z,74.81
2019-02-14T09:11:10.914Z,75.25
2019-02-14T09:13:41.404Z,74.50
2019-02-14T09:16:11.847Z,74.10
2019-02-14T09:18:42.306Z,73.89
2019-02-14T09:21:12.802Z,73.10
2019-02-14T09:23:43.272Z,72.61
2019-02-14T09:26:13.723Z,71.94
2019-02-14T09:28:44.570Z,71.88
2019-02-14T09:31:15.307Z,71.73
2019-02-14T09:33:45.737Z,70.85
2019-02-14T09:36:16.490Z,70.98
2019-02-14T09:38:46.949Z,70.54
2019-02-14T09:41:17.374Z,70.65
2019-02-14T09:43:48.238Z,70.69
2019-02-14T09:46:18.679Z,70.47
2019-02-14T09:48:49.115Z,69.79
2019-02-14T09:51:19.620Z,69.16
2019-02-14T09:53:50.046Z,69.18
2019-02-14T09:56:20.496Z,67.53
2019-02-14T09:58:51.990Z,67.69
2019-02-14T10:01:22.892Z,66.45
2019-02-14T10:03:53.666Z,66.68
2019-02-14T10:06:24.141Z,66.46
2019-02-14T10:08:54.587Z,65.90
2019-02-14T10:11:25.056Z,65.93
2019-02-14T10:13:55.881Z,64.71
2019-02-14T10:16:26.727Z,64.99
2019-02-14T10:18:57.272Z,63.45
2019-02-14T10:21:28.618Z,63.49
2019-02-14T10:23:59.084Z,63.45
2019-02-14T10:26:29.540Z,64.43
2019-02-14T10:29:00.029Z,62.58
2019-02-14T10:31:30.487Z,63.54
2019-02-14T10:34:00.904Z,61.82
2019-02-14T10:36:31.391Z,62.89
2019-02-14T10:39:01.838Z,61.03
2019-02-14T10:41:32.272Z,61.66
2019-02-14T10:44:03.139Z,62.78
2019-02-14T10:46:35.677Z,63.38
2019-02-14T10:49:05.718Z,62.63
2019-02-14T10:51:36.279Z,63.17
2019-02-14T10:54:06.722Z,60.82
2019-02-14T10:56:37.567Z,61.46
2019-02-14T10:59:08.037Z,62.65
2019-02-14T11:01:38.484Z,61.34
2019-02-14T11:04:08.934Z,60.27
2019-02-14T11:06:39.499Z,63.21
2019-02-14T11:09:10.040Z,63.17
2019-02-14T11:11:40.480Z,64.01
2019-02-14T11:14:10.960Z,62.67
2019-02-14T11:16:41.394Z,63.74
2019-02-14T11:19:11.836Z,63.43
2019-02-14T11:21:42.715Z,62.69
2019-02-14T11:24:13.186Z,62.44
2019-02-14T11:26:43.626Z,63.01
2019-02-14T11:29:14.109Z,62.69
2019-02-14T11:31:44.941Z,63.21
2019-02-14T11:34:15.382Z,62.67
2019-02-14T11:36:46.209Z,62.25
2019-02-14T11:39:16.645Z,61.39
2019-02-14T11:41:47.079Z,61.52
2019-02-14T11:44:17.574Z,60.21
2019-02-14T11:46:51.467Z,60.03
2019-02-14T11:49:20.571Z,60.10
2019-02-14T11:51:51.489Z,60.88
2019-02-14T11:54:21.906Z,60.48
2019-02-14T11:56:52.732Z,58.95
2019-02-14T11:59:23.666Z,59.68
2019-02-14T12:01:55.559Z,59.31
2019-02-14T12:04:26.213Z,57.95
2019-02-14T12:06:56.706Z,55.92
2019-02-14T12:09:27.149Z,57.94
2019-02-14T12:11:57.867Z,58.51
2019-02-14T12:14:28.349Z,56.15
2019-02-14T12:16:58.794Z,57.77
2019-02-14T12:19:29.232Z,58.16
2019-02-14T12:22:00.043Z,57.71
2019-02-14T12:24:30.517Z,55.48
2019-02-14T12:27:01.355Z,56.87
2019-02-14T12:29:31.843Z,54.93
2019-02-14T12:32:02.287Z,54.00
2019-02-14T12:34:33.389Z,54.26
2019-02-14T12:37:03.869Z,49.44
2019-02-14T12:39:34.321Z,48.63
2019-02-14T12:42:04.757Z,49.97
2019-02-14T12:44:35.243Z,49.92
2019-02-14T12:47:05.684Z,50.41
2019-02-14T12:49:36.128Z,50.44
2019-02-14T12:52:06.613Z,50.20
2019-02-14T12:54:37.049Z,48.85
2019-02-14T12:57:07.495Z,48.84
2019-02-14T12:59:38.382Z,48.48
2019-02-14T13:02:09.185Z,50.50
2019-02-14T13:04:39.619Z,49.10
2019-02-14T13:07:10.286Z,48.79
2019-02-14T13:09:41.075Z,48.92
2019-02-14T13:12:11.852Z,49.14
2019-02-14T13:14:42.338Z,48.49
2019-02-14T13:17:13.394Z,47.23
2019-02-14T13:19:43.835Z,47.76
2019-02-14T13:22:14.710Z,46.22
2019-02-14T13:24:45.206Z,47.90
2019-02-14T13:27:15.980Z,47.36
2019-02-14T13:29:46.461Z,48.42
2019-02-14T13:32:16.897Z,47.20
2019-02-14T13:34:47.337Z,47.10
2019-02-14T13:37:17.824Z,47.34
2019-02-14T13:39:48.633Z,44.65
2019-02-14T13:42:19.596Z,44.89
2019-02-14T13:44:50.159Z,45.00
2019-02-14T13:47:20.599Z,43.37
2019-02-14T13:49:51.445Z,41.25
2019-02-14T13:52:21.931Z,40.37
2019-02-14T13:54:52.740Z,41.15
2019-02-14T13:57:23.186Z,42.11
2019-02-14T13:59:54.022Z,39.58
2019-02-14T14:02:24.467Z,42.60
2019-02-14T14:04:54.930Z,42.68
2019-02-14T14:07:25.401Z,41.88
2019-02-14T14:09:55.847Z,42.73
2019-02-14T14:12:26.285Z,41.14
2019-02-14T14:14:56.929Z,42.29
2019-02-14T14:17:27.375Z,41.59
2019-02-14T14:19:57.819Z,39.92
2019-02-14T14:22:28.301Z,41.57
2019-02-14T14:24:59.127Z,39.82
2019-02-14T14:27:29.586Z,43.27
2019-02-14T14:30:00.079Z,40.93
2019-02-14T14:32:30.929Z,41.64
2019-02-14T14:35:02.068Z,41.43
2019-02-14T14:37:32.655Z,42.29
2019-02-14T14:40:03.605Z,40.24
2019-02-14T14:43:02.558Z,40.93
2019-02-14T14:45:53.227Z,41.69
2019-02-14T14:48:25.034Z,40.67
2019-02-14T14:50:55.470Z,41.03
2019-02-14T14:53:25.921Z,39.92
2019-02-14T14:55:56.425Z,38.67
2019-02-14T14:58:27.037Z,40.43
2019-02-14T15:00:57.750Z,39.58
2019-02-14T15:03:28.287Z,38.14
2019-02-14T15:05:58.694Z,39.34
2019-02-14T15:08:29.520Z,38.18
2019-02-14T15:11:00.005Z,37.26
2019-02-14T15:13:30.455Z,37.49
2019-02-14T15:16:00.913Z,38.23
2019-02-14T15:18:31.393Z,37.96
2019-02-14T15:21:01.847Z,37.08
2019-02-14T15:23:33.063Z,36.96
2019-02-14T15:26:04.963Z,37.77
2019-02-14T15:28:37.475Z,37.34
2019-02-14T15:31:08.293Z,35.49
2019-02-14T15:33:38.796Z,35.01
2019-02-14T15:36:09.899Z,35.84
2019-02-14T15:38:40.442Z,36.28
2019-02-14T15:41:10.940Z,38.11
2019-02-14T15:43:41.393Z,38.67
2019-02-14T15:46:11.853Z,38.92
2019-02-14T15:48:42.677Z,40.62
2019-02-14T15:51:13.121Z,41.40
2019-02-14T15:53:46.182Z,42.23
2019-02-14T15:56:16.386Z,43.01
2019-02-14T15:58:47.199Z,43.59
2019-02-14T16:01:19.010Z,44.85
2019-02-14T16:03:49.636Z,45.39
2019-02-14T16:06:20.080Z,46.02
2019-02-14T16:08:50.761Z,45.93
2019-02-14T16:11:22.370Z,45.84
2019-02-14T16:13:54.540Z,45.56
2019-02-14T16:16:25.337Z,46.16
2019-02-14T16:18:55.831Z,46.63
2019-02-14T16:21:27.791Z,46.65
2019-02-14T16:23:58.915Z,48.06
2019-02-14T16:26:29.445Z,47.91
2019-02-14T16:29:02.044Z,47.56
2019-02-14T16:31:33.325Z,48.21
2019-02-14T16:34:03.822Z,48.53
2019-02-14T16:36:34.271Z,48.41
2019-02-14T16:39:05.688Z,48.40
2019-02-14T16:41:36.530Z,48.30
2019-02-14T16:44:06.973Z,49.00
2019-02-14T16:46:37.425Z,49.58
2019-02-14T16:49:07.910Z,49.17
2019-02-14T16:51:38.347Z,50.06
2019-02-14T16:54:09.192Z,48.62
2019-02-14T16:56:39.684Z,47.69
2019-02-14T16:59:10.131Z,48.71
2019-02-14T17:01:40.990Z,49.93
2019-02-14T17:04:11.934Z,49.96
2019-02-14T17:06:42.409Z,50.85
2019-02-14T17:09:12.864Z,50.89
2019-02-14T17:11:43.353Z,51.34
2019-02-14T17:14:13.830Z,51.62
2019-02-14T17:16:44.289Z,51.75
2019-02-14T17:19:15.509Z,51.91
2019-02-14T17:21:45.984Z,52.03
2019-02-14T17:24:16.419Z,52.73
2019-02-14T17:26:47.296Z,52.91
2019-02-14T17:29:17.766Z,53.59
2019-02-14T17:31:48.220Z,53.74
2019-02-14T17:34:18.880Z,53.96
2019-02-14T17:36:49.346Z,54.78
2019-02-14T17:39:20.205Z,55.06
2019-02-14T17:41:52.125Z,55.46
2019-02-14T17:44:22.585Z,57.15
2019-02-14T17:46:53.396Z,56.75
2019-02-14T17:49:23.886Z,58.33
2019-02-14T17:51:54.340Z,57.43
2019-02-14T17:54:25.151Z,57.65
2019-02-14T17:56:55.649Z,58.08
2019-02-14T17:59:26.084Z,58.10
2019-02-14T18:01:57.000Z,57.68
2019-02-14T18:04:27.492Z,57.95
2019-02-14T18:06:58.933Z,57.82
2019-02-14T18:09:29.709Z,57.38
2019-02-14T18:12:00.601Z,58.21
2019-02-14T18:14:31.045Z,57.59
2019-02-14T18:17:01.563Z,58.30
2019-02-14T18:19:32.061Z,58.54
2019-02-14T18:22:02.531Z,58.38
2019-02-14T18:24:33.851Z,58.67
2019-02-14T18:27:04.364Z,58.39
2019-02-14T18:29:35.217Z,58.63
2019-02-14T18:32:06.004Z,59.22
2019-02-14T18:34:36.971Z,59.43
2019-02-14T18:37:07.417Z,59.72
2019-02-14T18:39:37.848Z,59.77
2019-02-14T18:42:09.001Z,60.06
2019-02-14T18:44:41.148Z,60.33
2019-02-14T18:47:12.022Z,60.46
2019-02-14T18:49:42.543Z,61.08
2019-02-14T18:52:14.293Z,60.88
2019-02-14T18:54:44.728Z,60.88
2019-02-14T18:57:15.218Z,60.98
2019-02-14T18:59:46.128Z,60.91
2019-02-14T19:02:16.674Z,61.35
2019-02-14T19:04:47.719Z,61.31
2019-02-14T19:07:18.169Z,61.50
2019-02-14T19:09:48.940Z,62.46
2019-02-14T19:12:21.527Z,62.84
2019-02-14T19:14:53.701Z,62.96
2019-02-14T19:17:24.170Z,62.76
2019-02-14T19:19:55.007Z,62.75
2019-02-14T19:22:25.455Z,62.97
2019-02-14T19:24:55.927Z,63.69
2019-02-14T19:27:27.843Z,64.15
2019-02-14T19:29:58.303Z,64.15
2019-02-14T19:32:28.744Z,64.54
2019-02-14T19:34:59.237Z,64.62
2019-02-14T19:37:30.069Z,65.38
2019-02-14T19:40:00.501Z,65.35
2019-02-14T19:42:31.750Z,65.53
2019-02-14T19:45:03.203Z,66.28
2019-02-14T19:47:41.340Z,65.96
2019-02-14T19:50:11.891Z,66.25
2019-02-14T19:52:42.728Z,66.37
2019-02-14T19:55:13.229Z,66.32
2019-02-14T19:57:43.689Z,66.52
2019-02-14T20:00:15.752Z,66.76
2019-02-14T20:02:46.255Z,66.94
2019-02-14T20:05:16.922Z,66.96
2019-02-14T20:07:47.398Z,66.86
2019-02-14T20:10:18.016Z,66.76
2019-02-14T20:12:48.496Z,66.94
2019-02-14T20:15:19.801Z,66.83
2019-02-14T20:17:50.613Z,66.62
2019-02-14T20:20:21.400Z,66.82
2019-02-14T20:22:51.829Z,66.63
2019-02-14T20:25:23.368Z,66.90
2019-02-14T20:27:57.272Z,66.99
2019-02-14T20:30:28.482Z,67.08
2019-02-14T20:33:04.727Z,66.98
2019-02-14T20:35:31.101Z,67.11
2019-02-14T20:38:02.159Z,66.85
2019-02-14T20:40:33.267Z,67.18
2019-02-14T20:43:05.902Z,67.48
2019-02-14T20:45:54.081Z,67.82
2019-02-14T20:48:24.589Z,67.67
2019-02-14T20:50:55.028Z,67.94
2019-02-14T20:53:25.473Z,67.96
2019-02-14T20:55:56.017Z,68.00
2019-02-14T20:58:26.498Z,68.13
2019-02-14T21:00:57.217Z,68.43
2019-02-14T21:03:30.464Z,68.55
2019-02-14T21:06:03.048Z,68.62
2019-02-14T21:08:33.498Z,68.93
2019-02-14T21:11:03.992Z,69.09
2019-02-14T21:13:34.793Z,69.33
2019-02-14T21:16:06.175Z,69.53
2019-02-14T21:18:37.350Z,69.65
2019-02-14T21:21:08.084Z,69.90
2019-02-14T21:23:39.777Z,69.82
2019-02-14T21:26:11.890Z,69.90
2019-02-14T21:28:43.414Z,70.48
2019-02-14T21:31:13.886Z,70.62
2019-02-14T21:33:44.682Z,70.64
2019-02-14T21:36:15.923Z,70.82
2019-02-14T21:38:46.344Z,70.75
2019-02-14T21:41:16.831Z,70.99
2019-02-14T21:43:47.286Z,70.96
2019-02-14T21:46:17.810Z,70.92
2019-02-14T21:48:48.613Z,70.83
2019-02-14T21:51:19.035Z,70.26
2019-02-14T21:53:49.912Z,69.92
2019-02-14T21:56:20.378Z,69.74
2019-02-14T21:58:51.302Z,69.52
2019-02-14T22:01:24.753Z,69.28
2019-02-14T22:03:55.743Z,68.67
2019-02-14T22:06:26.175Z,68.43
2019-02-14T22:08:56.666Z,68.25
2019-02-14T22:11:27.121Z,67.94
2019-02-14T22:13:57.893Z,67.81
2019-02-14T22:16:28.341Z,67.58
2019-02-14T22:18:59.121Z,67.79
2019-02-14T22:21:29.586Z,67.93
2019-02-14T22:24:00.174Z,67.77
2019-02-14T22:26:30.656Z,67.70
2019-02-14T22:29:01.299Z,67.72
2019-02-14T22:31:31.741Z,67.93
2019-02-14T22:34:02.284Z,67.55
2019-02-14T22:36:33.050Z,67.68
2019-02-14T22:39:05.119Z,67.80
2019-02-14T22:41:35.549Z,67.38
2019-02-14T22:44:06.754Z,67.56
2019-02-14T22:46:37.212Z,67.43
2019-02-14T22:49:07.801Z,67.37
2019-02-14T22:51:38.569Z,67.30
2019-02-14T22:54:09.009Z,67.33
2019-02-14T22:56:39.451Z,67.10
2019-02-14T22:59:10.181Z,67.14
2019-02-14T23:01:41.285Z,66.94
2019-02-14T23:04:12.241Z,67.21
2019-02-14T23:06:43.015Z,66.93
2019-02-14T23:09:14.044Z,66.88
2019-02-14T23:11:44.902Z,67.15
2019-02-14T23:14:15.331Z,67.34
2019-02-14T23:16:45.850Z,67.38
2019-02-14T23:19:16.573Z,67.57
2019-02-14T23:21:46.992Z,67.72
2019-02-14T23:24:17.459Z,67.34
2019-02-14T23:26:48.294Z,67.03
2019-02-14T23:29:19.139Z,67.20
2019-02-14T23:31:49.567Z,67.22
2019-02-14T23:34:20.002Z,67.14
2019-02-14T23:36:50.460Z,67.33
2019-02-14T23:39:20.893Z,67.49
2019-02-14T23:41:51.372Z,67.74
2019-02-14T23:44:21.808Z,67.78
2019-02-14T23:46:52.247Z,67.99
2019-02-14T23:49:22.709Z,68.43
2019-02-14T23:51:53.141Z,68.47
2019-02-14T23:54:23.632Z,68.75
2019-02-14T23:56:54.069Z,68.83
2019-02-14T23:59:24.507Z,69.13
